Brookings, Oregon
Current Conditions -  °F | °C
As of 4:56 PM on Friday 24 Oct 2014 (Local Time) from KBOK Reporting Station
Overcast Overcast  
Wind Chill: 66°   Ceiling: 4400
Heat Index: 66°   Visibility: 9mi
Dew Point: 56°   Wind: 9mph
Humidity: 70%   Direction: 130°SE
Pressure: 29.74"   Gusts: NA
Location:  42.05°N, 124.28°W
Report Text: KBOK 242356Z AUTO 13008KT 9SM OVC044 19/13 A2974 RMK AO2 56019 60000 T01880133 10194 20133 SLP071
Loading
Personal Weather Stations






























Interactive Weather Map
Tropical Storm Tracking
New forecast layout! Learn more

10-Day Weather Forecast

Advertisements
Track Severe Weather on mobile